sensor_id;sensor_type;location;lat;lon;timestamp;temperature;humidity
30037;DHT22;36325;51.512;-0.382;2023-07-30T00:00:00;16.60;99.90
30037;DHT22;36325;51.512;-0.382;2023-07-30T00:02:27;16.70;99.90
30037;DHT22;36325;51.512;-0.382;2023-07-30T00:04:55;16.70;99.90
30037;DHT22;36325;51.512;-0.382;2023-07-30T00:07:23;16.70;99.90
30037;DHT22;36325;51.512;-0.382;2023-07-30T00:12:17;16.70;99.90
30037;DHT22;36325;51.512;-0.382;2023-07-30T00:14:45;16.70;99.90
30037;DHT22;36325;51.512;-0.382;2023-07-30T00:17:12;16.70;99.90
30037;DHT22;36325;51.512;-0.382;2023-07-30T00:19:40;16.70;99.90
30037;DHT22;36325;51.512;-0.382;2023-07-30T00:22:07;16.70;99.90
30037;DHT22;36325;51.512;-0.382;2023-07-30T00:24:34;16.60;99.90
30037;DHT22;36325;51.512;-0.382;2023-07-30T00:29:30;16.60;99.90
30037;DHT22;36325;51.512;-0.382;2023-07-30T00:31:57;16.60;99.90
30037;DHT22;36325;51.512;-0.382;2023-07-30T00:34:26;16.60;99.90
30037;DHT22;36325;51.512;-0.382;2023-07-30T00:36:53;16.60;99.90
30037;DHT22;36325;51.512;-0.382;2023-07-30T00:39:20;16.60;99.90
30037;DHT22;36325;51.512;-0.382;2023-07-30T00:41:48;16.60;99.90
30037;DHT22;36325;51.512;-0.382;2023-07-30T00:44:15;16.60;99.90
30037;DHT22;36325;51.512;-0.382;2023-07-30T00:46:43;16.60;99.90
30037;DHT22;36325;51.512;-0.382;2023-07-30T00:51:41;16.60;99.90
30037;DHT22;36325;51.512;-0.382;2023-07-30T00:54:10;16.60;99.90
30037;DHT22;36325;51.512;-0.382;2023-07-30T00:56:37;16.60;99.90
30037;DHT22;36325;51.512;-0.382;2023-07-30T01:01:33;16.50;99.90
30037;DHT22;36325;51.512;-0.382;2023-07-30T01:04:03;16.50;99.90
30037;DHT22;36325;51.512;-0.382;2023-07-30T01:06:31;16.40;99.90
30037;DHT22;36325;51.512;-0.382;2023-07-30T01:09:00;16.40;99.90
30037;DHT22;36325;51.512;-0.382;2023-07-30T01:11:28;16.40;99.90
30037;DHT22;36325;51.512;-0.382;2023-07-30T01:16:25;16.30;99.90
30037;DHT22;36325;51.512;-0.382;2023-07-30T01:21:22;16.30;99.90
30037;DHT22;36325;51.512;-0.382;2023-07-30T01:23:49;16.20;99.90
30037;DHT22;36325;51.512;-0.382;2023-07-30T01:26:23;16.30;99.90
30037;DHT22;36325;51.512;-0.382;2023-07-30T01:28:54;16.30;99.90
30037;DHT22;36325;51.512;-0.382;2023-07-30T01:31:25;16.30;99.90
30037;DHT22;36325;51.512;-0.382;2023-07-30T01:33:55;16.30;99.90
30037;DHT22;36325;51.512;-0.382;2023-07-30T01:36:23;16.30;99.90
30037;DHT22;36325;51.512;-0.382;2023-07-30T01:38:51;16.30;99.90
30037;DHT22;36325;51.512;-0.382;2023-07-30T01:41:19;16.30;99.90
30037;DHT22;36325;51.512;-0.382;2023-07-30T01:43:48;16.40;99.90
30037;DHT22;36325;51.512;-0.382;2023-07-30T01:46:15;16.30;99.90
30037;DHT22;36325;51.512;-0.382;2023-07-30T01:48:43;16.30;99.90
30037;DHT22;36325;51.512;-0.382;2023-07-30T01:53:42;16.40;99.90
30037;DHT22;36325;51.512;-0.382;2023-07-30T01:56:12;16.40;99.90
30037;DHT22;36325;51.512;-0.382;2023-07-30T01:58:44;16.40;99.90
30037;DHT22;36325;51.512;-0.382;2023-07-30T02:01:12;16.40;99.90
30037;DHT22;36325;51.512;-0.382;2023-07-30T02:03:39;16.40;99.90
30037;DHT22;36325;51.512;-0.382;2023-07-30T02:06:11;16.40;99.90
30037;DHT22;36325;51.512;-0.382;2023-07-30T02:08:39;16.50;99.90
30037;DHT22;36325;51.512;-0.382;2023-07-30T02:11:06;16.40;99.90
30037;DHT22;36325;51.512;-0.382;2023-07-30T02:16:02;16.40;99.90
30037;DHT22;36325;51.512;-0.382;2023-07-30T02:18:29;16.40;99.90
30037;DHT22;36325;51.512;-0.382;2023-07-30T02:20:57;16.40;99.90
30037;DHT22;36325;51.512;-0.382;2023-07-30T02:23:25;16.40;99.90
30037;DHT22;36325;51.512;-0.382;2023-07-30T02:25:52;16.40;99.90
30037;DHT22;36325;51.512;-0.382;2023-07-30T02:28:20;16.40;99.90
30037;DHT22;36325;51.512;-0.382;2023-07-30T02:30:49;16.40;99.90
30037;DHT22;36325;51.512;-0.382;2023-07-30T02:33:17;16.40;99.90
30037;DHT22;36325;51.512;-0.382;2023-07-30T02:35:45;16.40;99.90
30037;DHT22;36325;51.512;-0.382;2023-07-30T02:38:12;16.40;99.90
30037;DHT22;36325;51.512;-0.382;2023-07-30T02:40:40;16.40;99.90
30037;DHT22;36325;51.512;-0.382;2023-07-30T02:43:08;16.40;99.90
30037;DHT22;36325;51.512;-0.382;2023-07-30T02:48:03;16.20;99.90
30037;DHT22;36325;51.512;-0.382;2023-07-30T02:50:31;16.20;99.90
30037;DHT22;36325;51.512;-0.382;2023-07-30T02:52:59;16.10;99.90
30037;DHT22;36325;51.512;-0.382;2023-07-30T02:55:26;16.10;99.90
30037;DHT22;36325;51.512;-0.382;2023-07-30T02:57:54;16.10;99.90
30037;DHT22;36325;51.512;-0.382;2023-07-30T03:00:24;16.10;99.90
30037;DHT22;36325;51.512;-0.382;2023-07-30T03:02:52;16.00;99.90
30037;DHT22;36325;51.512;-0.382;2023-07-30T03:05:19;16.00;99.90
30037;DHT22;36325;51.512;-0.382;2023-07-30T03:07:46;15.80;99.90
30037;DHT22;36325;51.512;-0.382;2023-07-30T03:10:14;15.80;99.90
30037;DHT22;36325;51.512;-0.382;2023-07-30T03:12:41;15.80;99.90
30037;DHT22;36325;51.512;-0.382;2023-07-30T03:15:09;15.70;99.90
30037;DHT22;36325;51.512;-0.382;2023-07-30T03:17:37;15.60;99.90
30037;DHT22;36325;51.512;-0.382;2023-07-30T03:20:05;15.60;99.90
30037;DHT22;36325;51.512;-0.382;2023-07-30T03:22:32;15.50;99.90
30037;DHT22;36325;51.512;-0.382;2023-07-30T03:25:00;15.40;99.90
30037;DHT22;36325;51.512;-0.382;2023-07-30T03:27:27;15.40;99.90
30037;DHT22;36325;51.512;-0.382;2023-07-30T03:29:55;15.40;99.90
30037;DHT22;36325;51.512;-0.382;2023-07-30T03:32:22;15.40;99.90
30037;DHT22;36325;51.512;-0.382;2023-07-30T03:34:50;15.30;99.90
30037;DHT22;36325;51.512;-0.382;2023-07-30T03:37:19;15.30;99.90
30037;DHT22;36325;51.512;-0.382;2023-07-30T03:42:16;15.30;99.90
30037;DHT22;36325;51.512;-0.382;2023-07-30T03:44:44;15.20;99.90
30037;DHT22;36325;51.512;-0.382;2023-07-30T03:49:39;15.20;99.90
30037;DHT22;36325;51.512;-0.382;2023-07-30T03:52:07;15.10;99.90
30037;DHT22;36325;51.512;-0.382;2023-07-30T03:54:38;15.20;99.90
30037;DHT22;36325;51.512;-0.382;2023-07-30T03:57:06;15.10;99.90
30037;DHT22;36325;51.512;-0.382;2023-07-30T03:59:33;15.20;99.90
30037;DHT22;36325;51.512;-0.382;2023-07-30T04:02:02;15.00;99.90
30037;DHT22;36325;51.512;-0.382;2023-07-30T04:04:29;15.10;99.90
30037;DHT22;36325;51.512;-0.382;2023-07-30T04:09:28;15.00;99.90
30037;DHT22;36325;51.512;-0.382;2023-07-30T04:11:59;15.00;99.90
30037;DHT22;36325;51.512;-0.382;2023-07-30T04:14:28;15.00;99.90
30037;DHT22;36325;51.512;-0.382;2023-07-30T04:16:56;15.00;99.90
30037;DHT22;36325;51.512;-0.382;2023-07-30T04:19:25;15.00;99.90
30037;DHT22;36325;51.512;-0.382;2023-07-30T04:21:57;15.00;99.90
30037;DHT22;36325;51.512;-0.382;2023-07-30T04:24:26;15.00;99.90
30037;DHT22;36325;51.512;-0.382;2023-07-30T04:26:57;15.00;99.90
30037;DHT22;36325;51.512;-0.382;2023-07-30T04:29:25;14.10;99.90
30037;DHT22;36325;51.512;-0.382;2023-07-30T04:31:55;15.00;99.90
30037;DHT22;36325;51.512;-0.382;2023-07-30T04:34:28;15.00;99.90
30037;DHT22;36325;51.512;-0.382;2023-07-30T04:36:56;15.00;99.90
30037;DHT22;36325;51.512;-0.382;2023-07-30T04:39:24;15.00;99.90
30037;DHT22;36325;51.512;-0.382;2023-07-30T04:41:55;15.00;99.90
30037;DHT22;36325;51.512;-0.382;2023-07-30T04:49:27;14.90;99.90
30037;DHT22;36325;51.512;-0.382;2023-07-30T04:51:55;14.90;99.90
30037;DHT22;36325;51.512;-0.382;2023-07-30T04:54:24;14.90;99.90
30037;DHT22;36325;51.512;-0.382;2023-07-30T04:56:52;14.90;99.90
30037;DHT22;36325;51.512;-0.382;2023-07-30T04:59:20;14.90;99.90
30037;DHT22;36325;51.512;-0.382;2023-07-30T05:01:50;14.90;99.90
30037;DHT22;36325;51.512;-0.382;2023-07-30T05:06:47;15.00;99.90
30037;DHT22;36325;51.512;-0.382;2023-07-30T05:09:14;15.00;99.90
30037;DHT22;36325;51.512;-0.382;2023-07-30T05:11:43;15.00;99.90
30037;DHT22;36325;51.512;-0.382;2023-07-30T05:14:17;15.10;99.90
30037;DHT22;36325;51.512;-0.382;2023-07-30T05:16:45;15.10;99.90
30037;DHT22;36325;51.512;-0.382;2023-07-30T05:19:13;15.10;99.90
30037;DHT22;36325;51.512;-0.382;2023-07-30T05:21:40;15.20;99.90
30037;DHT22;36325;51.512;-0.382;2023-07-30T05:24:08;15.40;99.90
30037;DHT22;36325;51.512;-0.382;2023-07-30T05:26:36;15.40;99.90
30037;DHT22;36325;51.512;-0.382;2023-07-30T05:29:03;15.50;99.90
30037;DHT22;36325;51.512;-0.382;2023-07-30T05:31:31;15.50;99.90
30037;DHT22;36325;51.512;-0.382;2023-07-30T05:34:01;15.60;99.90
30037;DHT22;36325;51.512;-0.382;2023-07-30T05:36:29;15.70;99.90
30037;DHT22;36325;51.512;-0.382;2023-07-30T05:38:56;14.90;99.90
30037;DHT22;36325;51.512;-0.382;2023-07-30T05:41:24;15.70;99.90
30037;DHT22;36325;51.512;-0.382;2023-07-30T05:43:51;15.60;99.90
30037;DHT22;36325;51.512;-0.382;2023-07-30T05:46:20;15.60;99.90
30037;DHT22;36325;51.512;-0.382;2023-07-30T05:48:48;15.60;99.90
30037;DHT22;36325;51.512;-0.382;2023-07-30T05:51:15;15.60;99.90
30037;DHT22;36325;51.512;-0.382;2023-07-30T05:53:45;15.60;99.90
30037;DHT22;36325;51.512;-0.382;2023-07-30T05:56:12;15.80;99.90
30037;DHT22;36325;51.512;-0.382;2023-07-30T05:58:44;14.30;99.90
30037;DHT22;36325;51.512;-0.382;2023-07-30T06:01:12;15.90;99.90
30037;DHT22;36325;51.512;-0.382;2023-07-30T06:03:41;15.90;99.90
30037;DHT22;36325;51.512;-0.382;2023-07-30T06:06:09;16.00;99.90
30037;DHT22;36325;51.512;-0.382;2023-07-30T06:08:37;16.10;99.90
30037;DHT22;36325;51.512;-0.382;2023-07-30T06:11:05;16.20;99.90
30037;DHT22;36325;51.512;-0.382;2023-07-30T06:13:32;16.20;99.90
30037;DHT22;36325;51.512;-0.382;2023-07-30T06:16:00;16.30;99.90
30037;DHT22;36325;51.512;-0.382;2023-07-30T06:18:28;16.30;99.90
30037;DHT22;36325;51.512;-0.382;2023-07-30T06:20:55;16.30;99.90
30037;DHT22;36325;51.512;-0.382;2023-07-30T06:23:24;16.30;99.90
30037;DHT22;36325;51.512;-0.382;2023-07-30T06:25:53;16.50;99.90
30037;DHT22;36325;51.512;-0.382;2023-07-30T06:28:22;16.50;99.90
30037;DHT22;36325;51.512;-0.382;2023-07-30T06:30:53;16.50;99.90
30037;DHT22;36325;51.512;-0.382;2023-07-30T06:33:21;16.50;99.90
30037;DHT22;36325;51.512;-0.382;2023-07-30T06:35:59;16.70;99.90
30037;DHT22;36325;51.512;-0.382;2023-07-30T06:38:27;16.70;99.90
30037;DHT22;36325;51.512;-0.382;2023-07-30T06:40:56;16.80;99.90
30037;DHT22;36325;51.512;-0.382;2023-07-30T06:43:40;16.90;99.90
30037;DHT22;36325;51.512;-0.382;2023-07-30T06:46:10;16.90;99.90
30037;DHT22;36325;51.512;-0.382;2023-07-30T06:48:38;16.90;99.90
30037;DHT22;36325;51.512;-0.382;2023-07-30T06:51:09;16.90;99.90
30037;DHT22;36325;51.512;-0.382;2023-07-30T06:53:37;16.90;99.90
30037;DHT22;36325;51.512;-0.382;2023-07-30T06:56:06;16.80;99.90
30037;DHT22;36325;51.512;-0.382;2023-07-30T06:58:33;16.80;99.90
30037;DHT22;36325;51.512;-0.382;2023-07-30T07:01:04;16.80;99.90
30037;DHT22;36325;51.512;-0.382;2023-07-30T07:03:32;16.80;99.90
30037;DHT22;36325;51.512;-0.382;2023-07-30T07:06:02;16.80;99.90
30037;DHT22;36325;51.512;-0.382;2023-07-30T07:11:02;16.80;99.90
30037;DHT22;36325;51.512;-0.382;2023-07-30T07:13:31;16.80;99.90
30037;DHT22;36325;51.512;-0.382;2023-07-30T07:15:59;16.90;99.90
30037;DHT22;36325;51.512;-0.382;2023-07-30T07:18:27;16.90;99.90
30037;DHT22;36325;51.512;-0.382;2023-07-30T07:21:00;17.00;99.90
30037;DHT22;36325;51.512;-0.382;2023-07-30T07:23:28;16.90;99.90
30037;DHT22;36325;51.512;-0.382;2023-07-30T07:25:58;17.10;99.90
30037;DHT22;36325;51.512;-0.382;2023-07-30T07:28:27;17.20;99.90
30037;DHT22;36325;51.512;-0.382;2023-07-30T07:31:00;17.30;99.90
30037;DHT22;36325;51.512;-0.382;2023-07-30T07:33:30;17.30;99.90
30037;DHT22;36325;51.512;-0.382;2023-07-30T07:36:06;17.50;99.90
30037;DHT22;36325;51.512;-0.382;2023-07-30T07:38:42;17.50;99.90
30037;DHT22;36325;51.512;-0.382;2023-07-30T07:41:17;17.70;99.90
30037;DHT22;36325;51.512;-0.382;2023-07-30T07:43:48;17.60;99.90
30037;DHT22;36325;51.512;-0.382;2023-07-30T07:46:15;17.80;99.90
30037;DHT22;36325;51.512;-0.382;2023-07-30T07:48:43;17.90;99.90
30037;DHT22;36325;51.512;-0.382;2023-07-30T07:51:13;18.00;99.90
30037;DHT22;36325;51.512;-0.382;2023-07-30T07:53:42;18.20;99.90
30037;DHT22;36325;51.512;-0.382;2023-07-30T07:56:11;18.20;99.90
30037;DHT22;36325;51.512;-0.382;2023-07-30T07:58:47;18.30;99.90
30037;DHT22;36325;51.512;-0.382;2023-07-30T08:01:15;18.20;99.90
30037;DHT22;36325;51.512;-0.382;2023-07-30T08:03:43;18.20;99.90
30037;DHT22;36325;51.512;-0.382;2023-07-30T08:06:11;18.50;99.90
30037;DHT22;36325;51.512;-0.382;2023-07-30T08:08:39;18.50;99.90
30037;DHT22;36325;51.512;-0.382;2023-07-30T08:11:08;15.70;99.90
30037;DHT22;36325;51.512;-0.382;2023-07-30T08:13:36;18.90;99.90
30037;DHT22;36325;51.512;-0.382;2023-07-30T08:16:03;19.00;99.90
30037;DHT22;36325;51.512;-0.382;2023-07-30T08:21:27;19.40;99.90
30037;DHT22;36325;51.512;-0.382;2023-07-30T08:23:56;19.70;99.90
30037;DHT22;36325;51.512;-0.382;2023-07-30T08:26:27;19.70;99.90
30037;DHT22;36325;51.512;-0.382;2023-07-30T08:28:55;19.80;99.90
30037;DHT22;36325;51.512;-0.382;2023-07-30T08:31:23;20.30;99.90
30037;DHT22;36325;51.512;-0.382;2023-07-30T08:33:51;20.30;99.90
30037;DHT22;36325;51.512;-0.382;2023-07-30T08:36:19;20.40;99.90
30037;DHT22;36325;51.512;-0.382;2023-07-30T08:38:49;20.40;99.90
30037;DHT22;36325;51.512;-0.382;2023-07-30T08:41:22;20.30;99.90
30037;DHT22;36325;51.512;-0.382;2023-07-30T08:43:50;20.60;99.90
30037;DHT22;36325;51.512;-0.382;2023-07-30T08:49:00;20.90;99.90
30037;DHT22;36325;51.512;-0.382;2023-07-30T08:51:29;20.90;99.90
30037;DHT22;36325;51.512;-0.382;2023-07-30T08:54:00;20.80;99.90
30037;DHT22;36325;51.512;-0.382;2023-07-30T08:56:30;20.80;99.90
30037;DHT22;36325;51.512;-0.382;2023-07-30T08:59:01;21.00;99.90
30037;DHT22;36325;51.512;-0.382;2023-07-30T09:01:36;20.90;99.90
30037;DHT22;36325;51.512;-0.382;2023-07-30T09:04:06;21.20;99.90
30037;DHT22;36325;51.512;-0.382;2023-07-30T09:06:34;21.40;99.90
30037;DHT22;36325;51.512;-0.382;2023-07-30T09:09:02;21.40;99.90
30037;DHT22;36325;51.512;-0.382;2023-07-30T09:11:31;21.40;99.90
30037;DHT22;36325;51.512;-0.382;2023-07-30T09:14:01;21.60;99.90
30037;DHT22;36325;51.512;-0.382;2023-07-30T09:16:31;22.00;99.90
30037;DHT22;36325;51.512;-0.382;2023-07-30T09:18:58;22.10;99.90
30037;DHT22;36325;51.512;-0.382;2023-07-30T09:21:31;22.60;99.90
30037;DHT22;36325;51.512;-0.382;2023-07-30T09:24:03;22.50;99.90
30037;DHT22;36325;51.512;-0.382;2023-07-30T09:26:46;22.20;99.90
30037;DHT22;36325;51.512;-0.382;2023-07-30T09:29:13;22.30;99.90
30037;DHT22;36325;51.512;-0.382;2023-07-30T09:31:49;22.30;99.90
30037;DHT22;36325;51.512;-0.382;2023-07-30T09:34:23;22.60;99.90
30037;DHT22;36325;51.512;-0.382;2023-07-30T09:36:52;22.70;99.90
30037;DHT22;36325;51.512;-0.382;2023-07-30T09:39:23;22.70;99.90
30037;DHT22;36325;51.512;-0.382;2023-07-30T09:41:53;22.40;99.90
30037;DHT22;36325;51.512;-0.382;2023-07-30T09:44:21;22.20;99.90
30037;DHT22;36325;51.512;-0.382;2023-07-30T09:46:51;22.80;99.90
30037;DHT22;36325;51.512;-0.382;2023-07-30T09:49:19;23.20;99.90
30037;DHT22;36325;51.512;-0.382;2023-07-30T09:54:19;23.30;99.90
30037;DHT22;36325;51.512;-0.382;2023-07-30T09:56:48;23.10;99.90
30037;DHT22;36325;51.512;-0.382;2023-07-30T09:59:16;23.00;99.90
30037;DHT22;36325;51.512;-0.382;2023-07-30T10:01:45;23.30;99.90
30037;DHT22;36325;51.512;-0.382;2023-07-30T10:04:14;23.20;99.90
30037;DHT22;36325;51.512;-0.382;2023-07-30T10:07:04;23.60;99.90
30037;DHT22;36325;51.512;-0.382;2023-07-30T10:09:39;23.30;99.90
30037;DHT22;36325;51.512;-0.382;2023-07-30T10:12:21;22.80;99.90
30037;DHT22;36325;51.512;-0.382;2023-07-30T10:14:50;22.00;99.90
30037;DHT22;36325;51.512;-0.382;2023-07-30T10:17:18;22.00;99.90
30037;DHT22;36325;51.512;-0.382;2023-07-30T10:19:49;21.40;99.90
30037;DHT22;36325;51.512;-0.382;2023-07-30T10:25:03;21.20;99.90
30037;DHT22;36325;51.512;-0.382;2023-07-30T10:27:39;21.20;99.90
30037;DHT22;36325;51.512;-0.382;2023-07-30T10:30:14;21.40;99.90
30037;DHT22;36325;51.512;-0.382;2023-07-30T10:35:45;21.90;99.90
30037;DHT22;36325;51.512;-0.382;2023-07-30T10:38:28;22.00;99.90
30037;DHT22;36325;51.512;-0.382;2023-07-30T10:41:09;21.60;99.90
30037;DHT22;36325;51.512;-0.382;2023-07-30T10:43:53;22.10;99.90
30037;DHT22;36325;51.512;-0.382;2023-07-30T10:46:30;22.50;99.90
30037;DHT22;36325;51.512;-0.382;2023-07-30T10:48:58;22.90;99.90
30037;DHT22;36325;51.512;-0.382;2023-07-30T10:51:28;23.20;99.90
30037;DHT22;36325;51.512;-0.382;2023-07-30T10:54:06;23.10;99.90
30037;DHT22;36325;51.512;-0.382;2023-07-30T10:56:37;23.10;99.90
30037;DHT22;36325;51.512;-0.382;2023-07-30T10:59:11;22.70;99.90
30037;DHT22;36325;51.512;-0.382;2023-07-30T11:01:43;22.70;99.90
30037;DHT22;36325;51.512;-0.382;2023-07-30T11:04:16;22.30;99.90
30037;DHT22;36325;51.512;-0.382;2023-07-30T11:06:49;22.00;99.90
30037;DHT22;36325;51.512;-0.382;2023-07-30T11:09:22;21.80;99.90
30037;DHT22;36325;51.512;-0.382;2023-07-30T11:11:51;20.80;99.90
30037;DHT22;36325;51.512;-0.382;2023-07-30T11:14:23;21.70;99.90
30037;DHT22;36325;51.512;-0.382;2023-07-30T11:16:59;21.40;99.90
30037;DHT22;36325;51.512;-0.382;2023-07-30T11:22:13;21.10;99.90
30037;DHT22;36325;51.512;-0.382;2023-07-30T11:24:40;20.90;99.90
30037;DHT22;36325;51.512;-0.382;2023-07-30T11:27:09;20.70;99.90
30037;DHT22;36325;51.512;-0.382;2023-07-30T11:29:37;20.70;99.90
30037;DHT22;36325;51.512;-0.382;2023-07-30T11:32:05;20.40;99.90
30037;DHT22;36325;51.512;-0.382;2023-07-30T11:34:33;20.40;99.90
30037;DHT22;36325;51.512;-0.382;2023-07-30T11:37:05;20.40;99.90
30037;DHT22;36325;51.512;-0.382;2023-07-30T11:39:34;20.30;99.90
30037;DHT22;36325;51.512;-0.382;2023-07-30T11:42:01;20.30;99.90
30037;DHT22;36325;51.512;-0.382;2023-07-30T11:44:32;20.20;99.90
30037;DHT22;36325;51.512;-0.382;2023-07-30T11:47:01;20.20;99.90
30037;DHT22;36325;51.512;-0.382;2023-07-30T11:49:30;20.10;99.90
30037;DHT22;36325;51.512;-0.382;2023-07-30T11:52:10;20.10;99.90
30037;DHT22;36325;51.512;-0.382;2023-07-30T11:54:39;19.90;99.90
30037;DHT22;36325;51.512;-0.382;2023-07-30T11:57:08;19.80;99.90
30037;DHT22;36325;51.512;-0.382;2023-07-30T11:59:36;19.80;99.90
30037;DHT22;36325;51.512;-0.382;2023-07-30T12:02:05;19.70;99.90
30037;DHT22;36325;51.512;-0.382;2023-07-30T12:04:45;19.70;99.90
30037;DHT22;36325;51.512;-0.382;2023-07-30T12:07:55;19.70;99.90
30037;DHT22;36325;51.512;-0.382;2023-07-30T12:10:26;17.30;99.90
30037;DHT22;36325;51.512;-0.382;2023-07-30T12:12:54;19.80;99.90
30037;DHT22;36325;51.512;-0.382;2023-07-30T12:17:49;19.80;99.90
30037;DHT22;36325;51.512;-0.382;2023-07-30T12:20:18;19.80;99.90
30037;DHT22;36325;51.512;-0.382;2023-07-30T12:22:46;19.70;99.90
30037;DHT22;36325;51.512;-0.382;2023-07-30T12:25:14;19.70;99.90
30037;DHT22;36325;51.512;-0.382;2023-07-30T12:27:42;19.50;99.90
30037;DHT22;36325;51.512;-0.382;2023-07-30T12:30:12;18.50;99.90
30037;DHT22;36325;51.512;-0.382;2023-07-30T12:32:41;19.70;99.90
30037;DHT22;36325;51.512;-0.382;2023-07-30T12:35:10;19.60;99.90
30037;DHT22;36325;51.512;-0.382;2023-07-30T12:37:39;19.70;99.90
30037;DHT22;36325;51.512;-0.382;2023-07-30T12:40:07;19.60;99.90
30037;DHT22;36325;51.512;-0.382;2023-07-30T12:42:35;19.60;99.90
30037;DHT22;36325;51.512;-0.382;2023-07-30T12:45:04;19.70;99.90
30037;DHT22;36325;51.512;-0.382;2023-07-30T12:47:31;19.80;99.90
30037;DHT22;36325;51.512;-0.382;2023-07-30T12:49:59;19.80;99.90
30037;DHT22;36325;51.512;-0.382;2023-07-30T12:52:27;19.80;99.90
30037;DHT22;36325;51.512;-0.382;2023-07-30T12:54:57;19.80;99.90
30037;DHT22;36325;51.512;-0.382;2023-07-30T12:57:25;19.80;99.90
30037;DHT22;36325;51.512;-0.382;2023-07-30T12:59:53;19.80;99.90
30037;DHT22;36325;51.512;-0.382;2023-07-30T13:02:24;19.80;99.90
30037;DHT22;36325;51.512;-0.382;2023-07-30T13:07:19;19.90;99.90
30037;DHT22;36325;51.512;-0.382;2023-07-30T13:09:47;19.90;99.90
30037;DHT22;36325;51.512;-0.382;2023-07-30T13:12:17;19.90;99.90
30037;DHT22;36325;51.512;-0.382;2023-07-30T13:14:45;20.00;99.90
30037;DHT22;36325;51.512;-0.382;2023-07-30T13:17:13;20.00;99.90
30037;DHT22;36325;51.512;-0.382;2023-07-30T13:22:08;20.10;99.90
30037;DHT22;36325;51.512;-0.382;2023-07-30T13:24:35;20.30;99.90
30037;DHT22;36325;51.512;-0.382;2023-07-30T13:27:04;20.50;99.90
30037;DHT22;36325;51.512;-0.382;2023-07-30T13:29:31;20.50;99.90
30037;DHT22;36325;51.512;-0.382;2023-07-30T13:31:58;20.50;99.90
30037;DHT22;36325;51.512;-0.382;2023-07-30T13:34:26;20.50;99.90
30037;DHT22;36325;51.512;-0.382;2023-07-30T13:36:53;20.30;99.90
30037;DHT22;36325;51.512;-0.382;2023-07-30T13:39:21;20.20;99.90
30037;DHT22;36325;51.512;-0.382;2023-07-30T13:41:48;19.80;99.90
30037;DHT22;36325;51.512;-0.382;2023-07-30T13:44:16;19.50;99.90
30037;DHT22;36325;51.512;-0.382;2023-07-30T13:49:13;19.20;99.90
30037;DHT22;36325;51.512;-0.382;2023-07-30T13:51:40;19.00;99.90
30037;DHT22;36325;51.512;-0.382;2023-07-30T13:54:07;18.90;99.90
30037;DHT22;36325;51.512;-0.382;2023-07-30T13:56:37;18.70;99.90
30037;DHT22;36325;51.512;-0.382;2023-07-30T13:59:05;18.60;99.90
30037;DHT22;36325;51.512;-0.382;2023-07-30T14:01:33;18.60;99.90
30037;DHT22;36325;51.512;-0.382;2023-07-30T14:04:02;18.60;99.90
30037;DHT22;36325;51.512;-0.382;2023-07-30T14:06:30;18.50;99.90
30037;DHT22;36325;51.512;-0.382;2023-07-30T14:11:27;18.40;99.90
30037;DHT22;36325;51.512;-0.382;2023-07-30T14:13:55;18.40;99.90
30037;DHT22;36325;51.512;-0.382;2023-07-30T14:16:23;18.40;99.90
30037;DHT22;36325;51.512;-0.382;2023-07-30T14:18:50;18.40;99.90
30037;DHT22;36325;51.512;-0.382;2023-07-30T14:23:45;18.40;99.90
30037;DHT22;36325;51.512;-0.382;2023-07-30T14:26:13;18.00;99.90
30037;DHT22;36325;51.512;-0.382;2023-07-30T14:28:40;18.30;99.90
30037;DHT22;36325;51.512;-0.382;2023-07-30T14:31:08;18.30;99.90
30037;DHT22;36325;51.512;-0.382;2023-07-30T14:33:37;18.10;99.90
30037;DHT22;36325;51.512;-0.382;2023-07-30T14:36:06;18.10;99.90
30037;DHT22;36325;51.512;-0.382;2023-07-30T14:38:36;17.90;99.90
30037;DHT22;36325;51.512;-0.382;2023-07-30T14:41:04;17.80;99.90
30037;DHT22;36325;51.512;-0.382;2023-07-30T14:43:32;17.80;99.90
30037;DHT22;36325;51.512;-0.382;2023-07-30T14:46:00;17.80;99.90
30037;DHT22;36325;51.512;-0.382;2023-07-30T14:48:28;17.80;99.90
30037;DHT22;36325;51.512;-0.382;2023-07-30T14:53:23;17.80;99.90
30037;DHT22;36325;51.512;-0.382;2023-07-30T14:55:52;17.80;99.90
30037;DHT22;36325;51.512;-0.382;2023-07-30T14:58:21;17.90;99.90
30037;DHT22;36325;51.512;-0.382;2023-07-30T15:00:48;18.10;99.90
30037;DHT22;36325;51.512;-0.382;2023-07-30T15:08:16;18.60;99.90
30037;DHT22;36325;51.512;-0.382;2023-07-30T15:10:45;18.60;99.90
30037;DHT22;36325;51.512;-0.382;2023-07-30T15:13:14;18.70;99.90
30037;DHT22;36325;51.512;-0.382;2023-07-30T15:15:52;19.50;99.90
30037;DHT22;36325;51.512;-0.382;2023-07-30T15:18:22;18.10;99.90
30037;DHT22;36325;51.512;-0.382;2023-07-30T15:20:49;18.80;99.90
30037;DHT22;36325;51.512;-0.382;2023-07-30T15:23:17;18.70;99.90
30037;DHT22;36325;51.512;-0.382;2023-07-30T15:25:46;18.60;99.90
30037;DHT22;36325;51.512;-0.382;2023-07-30T15:28:18;18.50;99.90
30037;DHT22;36325;51.512;-0.382;2023-07-30T15:33:13;18.40;99.90
30037;DHT22;36325;51.512;-0.382;2023-07-30T15:35:43;18.40;99.90
30037;DHT22;36325;51.512;-0.382;2023-07-30T15:38:11;18.40;99.90
30037;DHT22;36325;51.512;-0.382;2023-07-30T15:40:49;19.80;99.90
30037;DHT22;36325;51.512;-0.382;2023-07-30T15:43:17;18.50;99.90
30037;DHT22;36325;51.512;-0.382;2023-07-30T15:45:46;18.50;99.90
30037;DHT22;36325;51.512;-0.382;2023-07-30T15:48:13;18.60;99.90
30037;DHT22;36325;51.512;-0.382;2023-07-30T15:50:42;18.50;99.90
30037;DHT22;36325;51.512;-0.382;2023-07-30T15:53:23;18.50;99.90
30037;DHT22;36325;51.512;-0.382;2023-07-30T15:55:51;18.50;99.90
30037;DHT22;36325;51.512;-0.382;2023-07-30T15:58:20;18.40;99.90
30037;DHT22;36325;51.512;-0.382;2023-07-30T16:00:48;18.40;99.90
30037;DHT22;36325;51.512;-0.382;2023-07-30T16:03:15;18.40;99.90
30037;DHT22;36325;51.512;-0.382;2023-07-30T16:05:48;18.40;99.90
30037;DHT22;36325;51.512;-0.382;2023-07-30T16:08:18;18.20;99.90
30037;DHT22;36325;51.512;-0.382;2023-07-30T16:10:46;18.20;99.90
30037;DHT22;36325;51.512;-0.382;2023-07-30T16:13:13;18.20;99.90
30037;DHT22;36325;51.512;-0.382;2023-07-30T16:18:11;18.10;99.90
30037;DHT22;36325;51.512;-0.382;2023-07-30T16:20:39;18.00;99.90
30037;DHT22;36325;51.512;-0.382;2023-07-30T16:23:07;18.00;99.90
30037;DHT22;36325;51.512;-0.382;2023-07-30T16:25:34;17.80;99.90
30037;DHT22;36325;51.512;-0.382;2023-07-30T16:28:02;17.80;99.90
30037;DHT22;36325;51.512;-0.382;2023-07-30T16:30:29;17.80;99.90
30037;DHT22;36325;51.512;-0.382;2023-07-30T16:32:57;17.70;99.90
30037;DHT22;36325;51.512;-0.382;2023-07-30T16:35:25;17.70;99.90
30037;DHT22;36325;51.512;-0.382;2023-07-30T16:37:53;17.80;99.90
30037;DHT22;36325;51.512;-0.382;2023-07-30T16:40:21;17.80;99.90
30037;DHT22;36325;51.512;-0.382;2023-07-30T16:42:57;17.80;99.90
30037;DHT22;36325;51.512;-0.382;2023-07-30T16:45:29;17.70;99.90
30037;DHT22;36325;51.512;-0.382;2023-07-30T16:47:57;17.70;99.90
30037;DHT22;36325;51.512;-0.382;2023-07-30T16:50:28;17.60;99.90